Time;durP1;ratioP1;P1;durP2;ratioP2;P2;SDS_P1;SDS_P2;PMS_P1;PMS_P2;Temp;Humidity;BMP_temperature;BMP_pressure;BME280_temperature;BME280_humidity;BME280_pressure;Samples;Min_cycle;Max_cycle;Signal;HPM_P1;HPM_P2
2022/07/02 00:04:04;;;;;;;3.25;0.30;;;;;;;22.54;42.17;102115.91;16140672;19;129495;-52
2022/07/02 00:09:27;;;;;;;0.95;0.45;;;;;;;22.53;42.25;102103.06;16140343;19;129622;-54
2022/07/02 00:14:53;;;;;;;1.80;0.50;;;;;;;22.53;42.35;102106.72;16136581;19;129517;-51
2022/07/02 00:20:14;;;;;;;2.28;0.77;;;;;;;22.51;42.04;102094.13;16140365;19;130318;-52
2022/07/02 00:25:41;;;;;;;3.42;0.45;;;;;;;22.52;42.07;102096.66;16137235;19;130389;-54
2022/07/02 00:31:03;;;;;;;3.05;0.30;;;;;;;22.51;41.79;102099.69;16138600;19;130361;-49
2022/07/02 00:36:31;;;;;;;1.20;0.30;;;;;;;22.51;42.13;102099.69;16134948;19;129174;-53
2022/07/02 00:41:54;;;;;;;1.88;0.60;;;;;;;22.50;42.24;102098.00;16135562;19;130398;-53
2022/07/02 00:47:16;;;;;;;1.65;0.30;;;;;;;22.49;42.13;102096.28;16137921;19;129278;-52
2022/07/02 00:52:40;;;;;;;1.00;0.30;;;;;;;22.48;42.24;102089.03;16138187;19;129322;-51
2022/07/02 00:58:01;;;;;;;1.23;0.30;;;;;;;22.47;42.30;102085.38;16132231;19;129599;-52
2022/07/02 01:03:25;;;;;;;3.08;0.28;;;;;;;22.46;41.94;102085.63;16138603;19;129964;-54
2022/07/02 01:14:32;;;;;;;3.58;0.50;;;;;;;22.44;42.06;102089.50;16135844;19;129542;-47
2022/07/02 01:19:54;;;;;;;0.77;0.30;;;;;;;22.42;42.12;102088.88;16136694;19;129940;-52
2022/07/02 01:25:16;;;;;;;1.88;0.40;;;;;;;22.43;42.18;102087.81;16132883;19;130246;-49
2022/07/02 01:30:38;;;;;;;2.47;0.38;;;;;;;22.42;42.13;102086.09;16136496;19;129787;-53
2022/07/02 01:35:59;;;;;;;0.68;0.17;;;;;;;22.41;42.12;102092.78;16131530;19;130462;-54
2022/07/02 01:41:39;;;;;;;0.60;0.10;;;;;;;22.41;41.91;102087.19;16130542;19;129080;-51
2022/07/02 01:47:08;;;;;;;2.17;0.40;;;;;;;22.40;42.38;102088.28;16131778;19;129618;-55
2022/07/02 01:52:30;;;;;;;1.15;0.30;;;;;;;22.40;41.88;102087.44;16133676;19;130987;-50
2022/07/02 01:57:52;;;;;;;1.85;0.20;;;;;;;22.39;42.25;102092.19;16134512;19;130072;-56
2022/07/02 02:03:14;;;;;;;0.65;0.17;;;;;;;22.38;42.15;102084.91;16135816;19;130049;-55
2022/07/02 02:08:36;;;;;;;1.05;0.20;;;;;;;22.38;42.12;102087.72;16130443;19;130041;-52
2022/07/02 02:13:59;;;;;;;0.75;0.10;;;;;;;22.38;42.02;102095.19;16130649;19;132622;-49
2022/07/02 02:19:20;;;;;;;0.20;0.10;;;;;;;22.36;42.09;102095.47;16134933;19;129457;-54
2022/07/02 02:24:42;;;;;;;2.97;0.55;;;;;;;22.36;42.51;102087.09;16130721;19;131100;-51
2022/07/02 02:30:05;;;;;;;1.45;0.20;;;;;;;22.36;41.93;102083.44;16132519;19;129599;-56
2022/07/02 02:35:27;;;;;;;0.28;0.20;;;;;;;22.35;42.29;102085.41;16130972;19;129108;-51
2022/07/02 02:40:49;;;;;;;1.15;0.20;;;;;;;22.33;42.12;102087.56;16144411;19;131203;-51
2022/07/02 02:46:10;;;;;;;1.85;0.20;;;;;;;22.34;42.03;102083.69;16148637;19;130469;-52
2022/07/02 02:51:32;;;;;;;1.30;0.20;;;;;;;22.33;42.18;102087.56;16138109;19;129324;-53
2022/07/02 02:56:54;;;;;;;0.22;0.20;;;;;;;22.32;42.24;102083.09;16143607;19;129601;-54
2022/07/02 03:02:16;;;;;;;0.63;0.30;;;;;;;22.31;42.50;102084.19;16144822;19;130428;-52
2022/07/02 03:07:38;;;;;;;0.43;0.20;;;;;;;22.31;42.04;102083.34;16146685;19;130226;-53
2022/07/02 03:13:00;;;;;;;1.08;0.20;;;;;;;22.30;42.13;102088.06;16145283;19;129027;-53
2022/07/02 03:18:22;;;;;;;0.50;0.17;;;;;;;22.28;42.04;102091.09;16143051;19;130539;-53
2022/07/02 03:23:50;;;;;;;0.95;0.20;;;;;;;22.30;42.24;102099.22;16141559;19;129441;-51
2022/07/02 03:29:12;;;;;;;0.30;0.28;;;;;;;22.29;42.29;102100.28;16140970;19;129280;-54
2022/07/02 03:34:33;;;;;;;0.15;0.10;;;;;;;22.29;42.29;102108.66;16142060;19;129471;-52
2022/07/02 03:39:55;;;;;;;0.20;0.20;;;;;;;22.27;42.50;102108.06;16142649;19;129585;-52
2022/07/02 03:45:18;;;;;;;0.63;0.30;;;;;;;22.26;42.35;102110.00;16142715;19;129987;-54
2022/07/02 03:50:42;;;;;;;0.50;0.20;;;;;;;22.25;42.11;102122.25;16136078;19;129280;-50
2022/07/02 03:56:04;;;;;;;0.20;0.20;;;;;;;22.25;42.63;102124.19;16137288;19;129659;-54
2022/07/02 04:01:26;;;;;;;0.60;0.17;;;;;;;22.23;42.51;102118.84;16142539;19;131988;-52
2022/07/02 04:06:48;;;;;;;0.30;0.20;;;;;;;22.24;42.10;102120.53;16142703;19;131095;-53
2022/07/02 04:12:10;;;;;;;0.38;0.20;;;;;;;22.24;42.37;102117.75;16136863;19;134404;-51
2022/07/02 04:17:32;;;;;;;0.45;0.20;;;;;;;22.22;42.62;102113.53;16138081;19;129211;-52
2022/07/02 04:22:54;;;;;;;1.27;0.32;;;;;;;22.21;42.17;102120.19;16143105;19;129538;-51
2022/07/02 04:28:16;;;;;;;0.20;0.20;;;;;;;22.20;42.51;102122.09;16139956;19;130459;-53
2022/07/02 04:33:37;;;;;;;0.08;0.08;;;;;;;22.19;42.22;102114.81;16142300;19;129123;-50
2022/07/02 04:39:01;;;;;;;0.68;0.20;;;;;;;22.20;42.26;102127.69;16140559;19;131541;-52
2022/07/02 04:44:26;;;;;;;0.68;0.10;;;;;;;22.19;42.58;102120.41;16136090;19;128980;-54
2022/07/02 04:49:48;;;;;;;0.17;0.17;;;;;;;22.19;42.17;102116.75;16136069;19;129293;-55
2022/07/02 04:55:10;;;;;;;0.47;0.10;;;;;;;22.19;42.63;102119.53;16137744;19;129279;-53
2022/07/02 05:00:32;;;;;;;0.22;0.10;;;;;;;22.20;42.68;102121.22;16136126;19;130858;-52
2022/07/02 05:05:54;;;;;;;0.40;0.20;;;;;;;22.19;42.51;102119.53;16138103;19;129681;-54
2022/07/02 05:11:18;;;;;;;0.10;0.10;;;;;;;22.19;42.52;102122.31;16137810;19;129082;-56
2022/07/02 05:16:40;;;;;;;0.25;0.10;;;;;;;22.19;42.54;102125.97;16134096;19;129045;-55
2022/07/02 05:22:02;;;;;;;0.10;0.10;;;;;;;22.21;42.49;102122.97;16138436;19;129385;-53
2022/07/02 05:27:23;;;;;;;0.28;0.20;;;;;;;22.20;42.26;102118.44;16134550;19;128857;-54
2022/07/02 05:32:45;;;;;;;0.32;0.20;;;;;;;22.21;42.16;102121.03;16136607;19;130098;-53
2022/07/02 05:38:07;;;;;;;0.85;0.28;;;;;;;22.19;42.47;102125.09;16128757;19;129647;-53
2022/07/02 05:43:29;;;;;;;0.60;0.10;;;;;;;22.21;42.53;102122.97;16133716;19;129457;-54
2022/07/02 05:48:51;;;;;;;0.32;0.20;;;;;;;22.21;42.59;102129.41;16133783;19;129730;-53
2022/07/02 05:54:13;;;;;;;0.17;0.10;;;;;;;22.21;42.45;102128.53;16133468;19;129281;-55
2022/07/02 05:59:36;;;;;;;0.15;0.10;;;;;;;22.21;42.39;102125.75;16136133;19;129371;-54
2022/07/02 06:04:58;;;;;;;0.38;0.17;;;;;;;22.22;42.26;102130.25;16133850;19;129667;-56
2022/07/02 06:10:20;;;;;;;0.45;0.10;;;;;;;22.21;42.53;102120.19;16133945;19;129173;-53
2022/07/02 06:15:41;;;;;;;0.98;0.20;;;;;;;22.21;42.36;102123.84;16146748;19;129475;-54
2022/07/02 06:21:03;;;;;;;0.65;0.10;;;;;;;22.21;42.35;102125.75;16145467;19;129527;-52
2022/07/02 06:26:25;;;;;;;0.45;0.13;;;;;;;22.22;42.22;102124.66;16146387;19;129242;-54
2022/07/02 06:31:47;;;;;;;0.10;0.10;;;;;;;22.22;42.41;102124.66;16149215;19;129983;-54
2022/07/02 06:37:09;;;;;;;0.20;0.10;;;;;;;22.22;42.81;102116.31;16144611;19;129342;-54
2022/07/02 06:42:31;;;;;;;0.20;0.03;;;;;;;22.22;42.44;102117.13;16142422;19;129384;-54
2022/07/02 06:47:53;;;;;;;0.25;0.10;;;;;;;22.22;42.51;102113.53;16140018;19;129898;-54
2022/07/02 06:53:15;;;;;;;0.57;0.13;;;;;;;22.22;42.41;102119.94;16147194;19;129721;-56
2022/07/02 06:58:37;;;;;;;0.43;0.00;;;;;;;22.22;42.79;102107.94;16142340;19;129890;-53
2022/07/02 07:03:59;;;;;;;0.20;0.10;;;;;;;22.22;42.77;102113.53;16147437;19;130094;-54
2022/07/02 07:09:22;;;;;;;0.10;0.10;;;;;;;22.22;42.55;102114.34;16145668;19;130106;-55
2022/07/02 07:14:43;;;;;;;0.13;0.10;;;;;;;22.22;42.86;102119.09;16144405;19;128972;-52
2022/07/02 07:20:16;;;;;;;0.10;0.10;;;;;;;22.24;42.72;102134.47;16144385;19;129249;-53
2022/07/02 07:25:38;;;;;;;0.80;0.10;;;;;;;22.25;42.64;102129.75;16137601;19;129094;-52
2022/07/02 07:31:06;;;;;;;0.10;0.10;;;;;;;22.25;42.47;102132.56;16143826;19;129681;-55
2022/07/02 07:36:29;;;;;;;0.10;0.10;;;;;;;22.27;42.82;102122.03;16141303;19;131458;-54
2022/07/02 07:41:51;;;;;;;0.10;0.10;;;;;;;22.26;42.55;102112.78;16139503;19;129497;-49
2022/07/02 07:47:12;;;;;;;6.60;0.30;;;;;;;22.33;42.31;102112.66;16142136;19;130460;-52
2022/07/02 07:52:34;;;;;;;1.10;0.10;;;;;;;22.42;42.73;102114.00;16134422;19;129741;-55
2022/07/02 07:57:56;;;;;;;0.40;0.10;;;;;;;22.52;42.27;102110.59;16138065;19;130157;-54
2022/07/02 08:03:19;;;;;;;0.40;0.10;;;;;;;22.61;42.04;102115.78;16140991;19;129171;-53
2022/07/02 08:08:41;;;;;;;2.58;0.20;;;;;;;22.69;42.00;102118.22;16142593;19;129591;-51
2022/07/02 08:14:02;;;;;;;2.28;0.40;;;;;;;22.76;42.33;102113.34;16141394;19;130674;-51
2022/07/02 08:19:24;;;;;;;1.73;0.38;;;;;;;22.82;41.97;102120.75;16136361;19;128895;-54
2022/07/02 08:24:46;;;;;;;1.10;0.20;;;;;;;22.87;42.20;102122.78;16140148;19;129632;-54
2022/07/02 08:30:08;;;;;;;0.63;0.20;;;;;;;22.90;42.12;102122.31;16139985;19;131362;-54
2022/07/02 08:35:31;;;;;;;1.27;0.30;;;;;;;22.94;42.06;102115.16;16135998;19;131859;-56
2022/07/02 08:40:52;;;;;;;4.00;0.63;;;;;;;22.97;41.87;102108.22;16139037;19;128918;-55
2022/07/02 08:46:15;;;;;;;2.83;0.38;;;;;;;22.98;41.73;102109.91;16136735;19;129066;-53
2022/07/02 08:51:37;;;;;;;5.53;0.50;;;;;;;23.00;41.60;102103.00;16137509;19;130176;-56
2022/07/02 08:57:01;;;;;;;2.15;0.40;;;;;;;23.02;41.71;102092.41;16135050;19;130170;-55
2022/07/02 09:02:26;;;;;;;2.22;0.45;;;;;;;23.00;41.64;102083.47;16136927;19;130294;-53
2022/07/02 09:07:48;;;;;;;2.22;0.30;;;;;;;23.03;41.50;102074.56;16135191;19;129578;-56
2022/07/02 09:13:11;;;;;;;1.42;0.30;;;;;;;23.04;41.28;102065.13;16137311;19;129887;-54
2022/07/02 09:18:34;;;;;;;1.63;0.30;;;;;;;23.05;40.91;102066.81;16132870;19;130031;-52
2022/07/02 09:24:00;;;;;;;2.65;0.47;;;;;;;23.06;40.79;102056.50;16132439;19;129000;-51
2022/07/02 09:29:21;;;;;;;4.07;0.40;;;;;;;23.04;41.02;102048.38;16139051;19;129300;-56
2022/07/02 09:34:46;;;;;;;1.85;0.40;;;;;;;23.04;40.48;102048.38;16136519;19;128883;-55
2022/07/02 09:40:09;;;;;;;1.20;0.43;;;;;;;23.03;40.43;102043.88;16136523;19;129440;-53
2022/07/02 09:45:31;;;;;;;1.92;0.40;;;;;;;23.02;40.39;102033.81;16129320;19;130401;-52
2022/07/02 09:51:02;;;;;;;2.90;0.30;;;;;;;23.03;40.54;102029.09;16136872;19;129547;-56
2022/07/02 09:56:25;;;;;;;1.65;0.40;;;;;;;23.01;40.30;102034.94;16132406;19;130093;-53
2022/07/02 10:01:47;;;;;;;2.20;0.40;;;;;;;23.00;40.08;102030.44;16131181;19;129694;-54
2022/07/02 10:07:10;;;;;;;3.00;0.43;;;;;;;22.98;40.25;102028.97;16134997;19;129597;-52
2022/07/02 10:12:35;;;;;;;2.00;0.47;;;;;;;22.97;40.27;102028.16;16133381;19;129624;-56
2022/07/02 10:17:58;;;;;;;1.20;0.50;;;;;;;22.95;40.31;102010.81;16129399;19;128939;-55
2022/07/02 10:23:21;;;;;;;5.10;0.40;;;;;;;22.97;40.17;102010.53;16128669;19;129447;-56
2022/07/02 10:28:43;;;;;;;2.10;0.50;;;;;;;22.96;39.99;102009.72;16131062;19;130039;-52
2022/07/02 10:34:36;;;;;;;1.10;0.30;;;;;;;22.97;40.13;102005.81;16132482;19;132009;-54
2022/07/02 10:40:01;;;;;;;5.57;0.45;;;;;;;22.96;39.94;102001.34;16125145;19;129353;-55
2022/07/02 10:45:24;;;;;;;1.00;0.28;;;;;;;22.96;40.03;101998.53;16130663;19;129807;-56
2022/07/02 10:50:46;;;;;;;1.52;0.30;;;;;;;22.96;40.14;102001.34;16133405;19;129674;-56
2022/07/02 10:56:08;;;;;;;1.02;0.50;;;;;;;22.97;39.77;101997.44;16133033;19;129915;-54
2022/07/02 11:01:32;;;;;;;1.77;0.47;;;;;;;22.97;39.64;101997.44;16145913;19;129889;-53
2022/07/02 11:07:11;;;;;;;2.97;0.70;;;;;;;23.00;39.90;101993.31;16146884;19;131220;-56
2022/07/02 11:13:00;;;;;;;2.00;0.40;;;;;;;22.99;40.00;101988.81;16146154;19;129011;-57
2022/07/02 11:18:22;;;;;;;2.03;0.60;;;;;;;22.97;39.57;101986.28;16142430;19;131067;-55
2022/07/02 11:23:44;;;;;;;1.95;0.30;;;;;;;22.98;39.39;101979.63;16144704;19;129526;-54
2022/07/02 11:29:06;;;;;;;1.58;0.40;;;;;;;22.99;39.22;101975.72;16138523;19;129535;-54
2022/07/02 11:34:29;;;;;;;2.10;0.35;;;;;;;22.98;39.61;101971.25;16145641;19;129769;-55
2022/07/02 11:39:51;;;;;;;1.50;0.45;;;;;;;22.99;39.18;101963.69;16137473;19;131169;-55
2022/07/02 11:45:18;;;;;;;2.58;0.43;;;;;;;22.99;39.08;101953.41;16145412;19;129403;-54
2022/07/02 11:50:40;;;;;;;0.68;0.30;;;;;;;22.98;39.16;101948.06;16145173;19;129740;-54
2022/07/02 11:56:13;;;;;;;2.15;0.40;;;;;;;23.00;39.49;101951.44;16142325;19;129107;-54
2022/07/02 12:01:36;;;;;;;1.30;0.40;;;;;;;22.98;39.32;101946.13;16144187;19;129581;-56
2022/07/02 12:06:57;;;;;;;3.75;0.40;;;;;;;22.97;39.21;101938.84;16140870;19;129031;-54
2022/07/02 12:12:19;;;;;;;1.23;0.30;;;;;;;22.97;39.42;101922.09;16138651;19;129321;-52
2022/07/02 12:17:49;;;;;;;2.33;0.50;;;;;;;22.99;38.94;101927.41;16138667;19;130984;-52
2022/07/02 12:23:11;;;;;;;1.40;0.43;;;;;;;22.97;39.12;101919.31;16140070;19;130188;-54
2022/07/02 12:34:13;;;;;;;1.30;0.38;;;;;;;22.99;38.74;101905.97;16141537;19;129625;-55
2022/07/02 12:39:41;;;;;;;0.93;0.38;;;;;;;23.00;39.16;101916.03;16135199;19;128961;-51
2022/07/02 12:45:05;;;;;;;0.43;0.28;;;;;;;23.00;39.02;101896.50;16134949;19;129250;-54
2022/07/02 12:50:30;;;;;;;1.45;0.30;;;;;;;23.00;38.90;101895.63;16139978;19;129605;-57
2022/07/02 12:55:55;;;;;;;1.05;0.30;;;;;;;23.02;39.00;101891.47;16140906;19;129614;-54
2022/07/02 13:01:17;;;;;;;2.60;0.40;;;;;;;23.02;39.09;101891.47;16139074;19;130062;-53
2022/07/02 13:06:39;;;;;;;3.25;0.40;;;;;;;23.01;38.66;101884.22;16139105;19;130423;-52
2022/07/02 13:12:01;;;;;;;0.80;0.20;;;;;;;23.03;39.18;101883.97;16137238;19;130285;-54
2022/07/02 13:17:22;;;;;;;14.50;0.68;;;;;;;23.03;38.63;101883.97;16135037;19;130565;-54
2022/07/02 13:23:01;;;;;;;1.63;0.30;;;;;;;23.03;38.58;101879.22;16129349;19;129074;-55
2022/07/02 13:28:23;;;;;;;3.00;0.50;;;;;;;23.04;38.83;101869.75;16135439;19;129649;-54
2022/07/02 13:33:44;;;;;;;8.48;0.50;;;;;;;23.07;38.58;101861.97;16136000;19;129889;-53
2022/07/02 13:39:06;;;;;;;2.75;0.60;;;;;;;23.08;38.62;101863.66;16133715;19;129732;-54
2022/07/02 13:44:29;;;;;;;1.67;0.25;;;;;;;23.07;38.44;101862.84;16129873;19;130666;-54
2022/07/02 13:49:50;;;;;;;3.47;0.50;;;;;;;23.10;38.33;101851.13;16136348;19;129528;-54
2022/07/02 13:55:12;;;;;;;2.75;0.50;;;;;;;23.09;38.24;101849.44;16132785;19;129902;-53
2022/07/02 14:00:34;;;;;;;3.42;0.50;;;;;;;23.11;38.30;101844.47;16130848;19;129245;-54
2022/07/02 14:05:56;;;;;;;1.20;0.25;;;;;;;23.12;38.50;101839.75;16137106;19;129823;-53
2022/07/02 14:11:19;;;;;;;3.53;0.73;;;;;;;23.12;38.40;101835.00;16136111;19;129424;-56
2022/07/02 14:16:41;;;;;;;3.75;0.30;;;;;;;23.11;37.94;101843.63;16134835;19;129316;-54
2022/07/02 14:22:03;;;;;;;1.33;0.50;;;;;;;23.10;38.56;101839.97;16130007;19;129850;-55
2022/07/02 14:27:25;;;;;;;1.17;0.32;;;;;;;23.10;38.28;101833.56;16135663;19;129722;-48
2022/07/02 14:32:47;;;;;;;1.52;0.40;;;;;;;23.11;38.48;101833.28;16137765;19;130570;-55
2022/07/02 14:38:10;;;;;;;1.33;0.30;;;;;;;23.12;38.44;101820.19;16147740;19;129426;-55
2022/07/02 14:43:33;;;;;;;2.42;0.40;;;;;;;23.13;38.52;101821.91;16146590;19;129097;-54
2022/07/02 14:48:55;;;;;;;3.10;0.28;;;;;;;23.12;38.55;101825.78;16147483;19;129633;-55
2022/07/02 14:54:17;;;;;;;1.50;0.30;;;;;;;23.11;37.95;101829.69;16148400;19;131832;-55
2022/07/02 14:59:39;;;;;;;2.85;0.40;;;;;;;23.06;37.97;101824.84;16140203;19;134188;-55
2022/07/02 15:05:04;;;;;;;2.88;0.40;;;;;;;23.06;38.12;101819.28;16146732;19;128971;-54
2022/07/02 15:10:25;;;;;;;2.50;0.40;;;;;;;23.09;38.03;101815.13;16144729;19;130252;-55
2022/07/02 15:15:59;;;;;;;0.80;0.20;;;;;;;23.13;38.18;101816.31;16148026;19;130544;-52
2022/07/02 15:21:26;;;;;;;0.43;0.25;;;;;;;23.16;38.08;101805.47;16144492;19;130172;-52
2022/07/02 15:26:48;;;;;;;1.50;0.35;;;;;;;23.17;38.33;101800.72;16146982;19;130593;-56
2022/07/02 15:32:12;;;;;;;4.90;0.50;;;;;;;23.17;38.11;101801.59;16145568;19;130209;-53
2022/07/02 15:37:38;;;;;;;2.60;0.32;;;;;;;23.20;38.17;101794.63;16145591;19;129466;-53
2022/07/02 15:43:04;;;;;;;1.17;0.32;;;;;;;23.22;38.42;101791.56;16141474;19;130001;-55
2022/07/02 15:48:27;;;;;;;2.83;0.32;;;;;;;23.22;38.34;101781.28;16144242;19;129588;-54
2022/07/02 15:53:53;;;;;;;1.80;0.60;;;;;;;23.23;38.50;101774.59;16144410;19;129232;-54
2022/07/02 15:59:17;;;;;;;1.08;0.32;;;;;;;23.25;38.15;101779.91;16138924;19;128807;-54
2022/07/02 16:04:42;;;;;;;1.20;0.30;;;;;;;23.26;38.03;101771.28;16143689;19;129983;-56
2022/07/02 16:10:05;;;;;;;0.57;0.20;;;;;;;23.29;38.68;101764.34;16143428;19;129092;-51
2022/07/02 16:15:28;;;;;;;0.63;0.20;;;;;;;23.29;38.40;101765.16;16141087;19;130293;-54
2022/07/02 16:20:50;;;;;;;2.50;0.40;;;;;;;23.31;38.47;101757.38;16138450;19;129858;-52
2022/07/02 16:26:13;;;;;;;1.35;0.30;;;;;;;23.34;38.45;101751.28;16140433;19;128825;-53
2022/07/02 16:31:44;;;;;;;1.17;0.30;;;;;;;23.35;38.26;101741.81;16138975;19;129569;-55
2022/07/02 16:37:16;;;;;;;0.70;0.32;;;;;;;23.38;38.78;101750.78;16140507;19;129399;-56
2022/07/02 16:42:39;;;;;;;2.63;0.40;;;;;;;23.38;38.18;101739.59;16138706;19;129473;-59
2022/07/02 16:48:01;;;;;;;2.90;0.60;;;;;;;23.40;38.37;101737.38;16141834;19;129957;-49
2022/07/02 16:53:23;;;;;;;1.17;0.35;;;;;;;23.42;38.69;101740.75;16140222;19;129549;-55
2022/07/02 16:58:47;;;;;;;0.77;0.30;;;;;;;23.43;38.88;101740.53;16138247;19;130058;-54
2022/07/02 17:04:10;;;;;;;0.95;0.22;;;;;;;23.41;39.03;101737.13;16140070;19;130172;-50
2022/07/02 17:09:32;;;;;;;0.77;0.47;;;;;;;23.42;39.35;101741.63;16138702;19;129306;-57
2022/07/02 17:14:54;;;;;;;4.63;0.45;;;;;;;23.42;39.02;101735.19;16137659;19;130710;-54
2022/07/02 17:20:17;;;;;;;2.63;0.45;;;;;;;23.45;38.88;101734.66;16133486;19;128905;-55
2022/07/02 17:25:38;;;;;;;2.65;0.63;;;;;;;23.45;39.01;101732.69;16132485;19;130727;-51
2022/07/02 17:31:00;;;;;;;14.27;1.30;;;;;;;23.44;39.08;101727.38;16131890;19;129693;-52
2022/07/02 17:36:22;;;;;;;8.23;0.98;;;;;;;23.44;38.64;101721.81;16133389;19;129400;-54
2022/07/02 17:41:44;;;;;;;23.38;2.85;;;;;;;23.43;38.86;101729.34;16132048;19;130974;-56
2022/07/02 17:47:06;;;;;;;17.50;1.77;;;;;;;23.43;39.10;101722.91;16134992;19;129237;-54
2022/07/02 17:52:28;;;;;;;28.58;2.22;;;;;;;23.42;39.08;101713.69;16138422;19;129364;-54
2022/07/02 17:57:50;;;;;;;27.08;2.03;;;;;;;23.41;39.04;101717.59;16138132;19;129691;-53
2022/07/02 18:03:12;;;;;;;19.35;2.08;;;;;;;23.39;39.57;101711.41;16137061;19;128907;-56
2022/07/02 18:08:33;;;;;;;29.88;2.15;;;;;;;23.37;39.44;101698.84;16136487;19;132192;-53
2022/07/02 18:13:56;;;;;;;23.98;2.30;;;;;;;23.37;40.14;101701.63;16134947;19;130164;-54
2022/07/02 18:19:18;;;;;;;18.52;2.25;;;;;;;23.35;40.05;101685.97;16133409;19;129607;-51
2022/07/02 18:24:40;;;;;;;23.55;2.17;;;;;;;23.35;40.17;101691.56;16135461;19;129670;-57
2022/07/02 18:30:05;;;;;;;19.70;1.58;;;;;;;23.36;39.90;101695.19;16134673;19;129338;-54
2022/07/02 18:35:27;;;;;;;;;;;;;;;23.31;40.36;101686.75;16135037;19;129028;-54
2022/07/02 18:40:49;;;;;;;12.70;1.75;;;;;;;23.33;40.24;101685.38;16128777;19;128886;-56
2022/07/02 18:46:10;;;;;;;22.30;1.98;;;;;;;23.33;40.48;101678.94;16133499;19;129188;-54
2022/07/02 18:51:32;;;;;;;25.05;2.50;;;;;;;23.31;40.42;101682.00;16135029;19;129434;-56
2022/07/02 18:56:54;;;;;;;20.55;1.90;;;;;;;23.32;40.44;101674.47;16132981;19;129050;-55
2022/07/02 19:02:16;;;;;;;16.58;1.55;;;;;;;23.30;40.95;101677.53;16129030;19;129834;-57
2022/07/02 19:07:38;;;;;;;28.25;2.58;;;;;;;23.30;40.65;101666.34;16133053;19;129851;-54
2022/07/02 19:13:01;;;;;;;10.55;1.30;;;;;;;23.29;40.50;101673.03;16133415;19;129605;-56
2022/07/02 19:18:22;;;;;;;14.23;1.20;;;;;;;23.28;40.09;101678.88;16135095;19;129753;-51
2022/07/02 19:23:44;;;;;;;25.55;2.60;;;;;;;23.25;40.51;101671.88;16146719;19;129802;-55
2022/07/02 19:34:47;;;;;;;15.20;1.63;;;;;;;23.19;40.69;101670.97;16146206;19;129363;-54
2022/07/02 19:40:10;;;;;;;16.70;2.20;;;;;;;23.19;41.00;101670.13;16140984;19;130742;-54
2022/07/02 19:45:31;;;;;;;21.17;2.90;;;;;;;23.18;40.66;101679.59;16140305;19;130830;-56
2022/07/02 19:50:55;;;;;;;23.30;2.00;;;;;;;23.17;40.67;101672.31;16144420;19;129260;-56
2022/07/02 19:56:18;;;;;;;27.60;2.25;;;;;;;23.15;40.86;101677.31;16144171;19;129299;-54
2022/07/02 20:01:43;;;;;;;15.73;1.90;;;;;;;23.15;41.05;101680.09;16131675;19;130057;-55
2022/07/02 20:07:05;;;;;;;10.95;1.75;;;;;;;23.11;40.89;101678.97;16140565;19;129247;-54
2022/07/02 20:12:27;;;;;;;9.95;1.60;;;;;;;23.09;40.99;101681.16;16140994;19;130619;-55
2022/07/02 20:17:53;;;;;;;12.75;1.70;;;;;;;23.07;41.02;101687.00;16133640;19;129800;-53
2022/07/02 20:23:15;;;;;;;15.55;1.92;;;;;;;23.08;41.06;101690.63;16133671;19;129789;-57
2022/07/02 20:28:37;;;;;;;11.98;1.85;;;;;;;23.11;40.81;101690.13;16141459;19;129687;-56
2022/07/02 20:33:59;;;;;;;7.00;1.42;;;;;;;23.12;40.74;101691.81;16142785;19;128852;-55
2022/07/02 20:39:20;;;;;;;4.78;1.00;;;;;;;23.11;40.86;101690.94;16139633;19;130001;-56
2022/07/02 20:44:42;;;;;;;7.47;1.65;;;;;;;23.07;40.90;101689.81;16138183;19;129073;-56
2022/07/02 20:50:06;;;;;;;24.38;3.28;;;;;;;23.05;41.03;101690.03;16140251;19;129477;-56
2022/07/02 20:55:28;;;;;;;11.98;1.88;;;;;;;23.05;40.85;101694.78;16138221;19;129334;-55
2022/07/02 21:00:51;;;;;;;6.50;1.40;;;;;;;23.04;40.95;101693.94;16135456;19;130404;-55
2022/07/02 21:06:13;;;;;;;7.70;1.40;;;;;;;23.04;40.94;101690.31;16139704;19;129329;-55
2022/07/02 21:11:36;;;;;;;11.23;1.58;;;;;;;23.03;40.82;101688.63;16139509;19;129643;-55
2022/07/02 21:16:58;;;;;;;7.25;1.48;;;;;;;23.01;41.10;101680.50;16139253;19;129664;-55
2022/07/02 21:22:22;;;;;;;6.15;1.10;;;;;;;23.02;40.81;101682.19;16128822;19;129516;-54
2022/07/02 21:27:44;;;;;;;5.25;1.15;;;;;;;23.00;41.26;101677.97;16120076;19;129340;-52
2022/07/02 21:33:06;;;;;;;7.50;1.25;;;;;;;22.98;41.13;101681.03;16106029;19;129926;-52
2022/07/02 21:38:28;;;;;;;2.60;0.85;;;;;;;22.99;41.19;101685.50;16110605;19;129901;-51
2022/07/02 21:43:50;;;;;;;6.57;1.08;;;;;;;22.98;41.21;101685.75;16127656;19;131916;-57
2022/07/02 21:49:12;;;;;;;5.00;1.15;;;;;;;22.97;41.46;101693.28;16137805;19;129570;-53
2022/07/02 21:54:34;;;;;;;6.30;1.10;;;;;;;22.96;41.16;101702.75;16136003;19;129022;-54
2022/07/02 21:59:56;;;;;;;4.72;1.13;;;;;;;22.95;41.13;101692.69;16134565;19;128992;-55
2022/07/02 22:05:17;;;;;;;1.40;0.80;;;;;;;22.95;41.16;101697.44;16133024;19;129251;-55
2022/07/02 22:10:39;;;;;;;3.80;0.75;;;;;;;22.94;41.13;101685.41;16138080;19;129735;-56
2022/07/02 22:16:01;;;;;;;3.47;0.73;;;;;;;22.94;41.09;101679.00;16136242;19;129116;-58
2022/07/02 22:21:23;;;;;;;2.67;0.70;;;;;;;22.91;41.28;101669.19;16132010;19;129923;-58
2022/07/02 22:26:45;;;;;;;2.92;0.60;;;;;;;22.91;41.37;101665.56;16130759;19;130469;-57
2022/07/02 22:32:08;;;;;;;2.38;0.80;;;;;;;22.89;41.13;101668.59;16134020;19;130150;-58
2022/07/02 22:37:30;;;;;;;3.35;0.98;;;;;;;22.89;41.52;101676.97;16133378;19;129379;-57
2022/07/02 22:42:52;;;;;;;3.00;0.80;;;;;;;22.86;41.49;101671.91;16129149;19;130527;-55
2022/07/02 22:48:14;;;;;;;2.00;0.70;;;;;;;22.86;41.40;101675.50;16135008;19;130510;-53
2022/07/02 22:53:35;;;;;;;1.60;0.68;;;;;;;22.85;41.54;101671.03;16137924;19;131154;-57
2022/07/02 22:58:57;;;;;;;2.28;0.70;;;;;;;22.85;41.39;101673.00;16148645;19;130697;-59
2022/07/02 23:04:19;;;;;;;1.88;0.60;;;;;;;22.84;41.14;101680.50;16147764;19;128986;-57
2022/07/02 23:09:41;;;;;;;1.60;0.52;;;;;;;22.82;41.43;101688.31;16146606;19;129842;-51
2022/07/02 23:15:03;;;;;;;1.17;0.50;;;;;;;22.82;41.24;101701.41;16148372;19;129307;-57
2022/07/02 23:20:26;;;;;;;4.32;0.60;;;;;;;22.81;41.13;101697.78;16143902;19;129766;-57
2022/07/02 23:25:47;;;;;;;0.52;0.45;;;;;;;22.82;41.31;101707.84;16145204;19;129229;-53
2022/07/02 23:31:09;;;;;;;1.25;0.47;;;;;;;22.82;41.16;101698.59;16145871;19;131146;-55
2022/07/02 23:42:12;;;;;;;1.73;0.57;;;;;;;22.80;41.05;101711.97;16138936;19;129190;-57
2022/07/02 23:47:34;;;;;;;2.20;0.40;;;;;;;22.79;41.38;101724.22;16145838;19;129438;-55
2022/07/02 23:52:56;;;;;;;1.27;0.50;;;;;;;22.78;41.30;101731.75;16145158;19;129664;-53
2022/07/02 23:58:17;;;;;;;1.90;0.60;;;;;;;22.77;41.10;101723.66;16140899;19;129398;-54
